Aviation Digital Data Service (ADDS)

Output produced by METARs form (0011 UTC 26 April 2017)
found at http://aviationweather.gov/adds/metars/
 
KJAX 252343Z 2600/2624 24005KT P6SM SCT040 
     TEMPO 2600/2604 6SM FU BKN040 
     FM261700 20006KT P6SM FEW045 SCT250